Impacts TAF Board INFO
FOR SITUATIONAL AWARENESS. NOT TO BE USED FOR FLIGHT PLANNING PURPOSES.
IDs:

KPHX - Phoenix/Sky Harbor, AZ, US

Issued at 0821 UTC 18 Jan 2018
Updated at 0953 UTC 18 Jan 2018
Potential Impact None Slight Moderate High
Time0951Z 18/10Z 18/11Z 18/12Z 18/13Z 18/14Z 18/15Z 18/16Z 18/17Z 18/18Z 18/19Z 18/20Z 18/21Z 18/22Z>>
Type OBS PRVL PRVL PRVL PRVL PRVL PRVL PRVL PRVL PRVL PRVL PRVL PRVL PRVL
VIS 10 >6 >6 >6 >6 >6 >6 >6 >6 >6 >6 >6 >6 >6
CIG -- -- -- -- -- -- -- -- -- -- -- -- -- --
Cover CLR FEW FEW FEW FEW FEW FEW FEW FEW FEW FEW FEW FEW FEW
FltCat VFR VFR VFR VFR VFR VFR VFR VFR VFR VFR VFR VFR VFR VFR
WX -- -- -- -- -- -- -- -- -- -- -- -- -- --
WDir 100 100 100 100 100 100 100 100 100 100 100 100 100 100
WSpd 6 8 8 8 8 8 8 8 8 8 8 8 8 8
WGst -- -- -- -- -- -- -- -- -- -- -- -- -- --

Raw TAF
KPHX 180821Z 1808/1912 10008KT P6SM FEW250
  FM182300 VRB04KT P6SM SKC


Raw METAR
KPHX 180951Z 10006KT 10SM CLR 11/M03 A3015 RMK AO2 SLP200 T01111028
KPHX 180851Z 10007KT 10SM CLR 12/M02 A3015 RMK AO2 SLP200 T01171022 56008
KPHX 180751Z 11007KT 10SM CLR 13/M02 A3015 RMK AO2 SLP202 T01331022
KPHX 180651Z 13004KT 10SM CLR 12/M01 A3016 RMK AO2 SLP206 T01221006 402220111

METAR Board
Radar Display
Forecast Discussion

FOR SITUATIONAL AWARENESS. NOT TO BE USED FOR FLIGHT PLANNING PURPOSES.